Time;durP1;ratioP1;P1;durP2;ratioP2;P2;SDS_P1;SDS_P2;PMS_P1;PMS_P2;Temp;Humidity;BMP_temperature;BMP_pressure;BME280_temperature;BME280_humidity;BME280_pressure;Samples;Min_cycle;Max_cycle;Signal;HPM_P1;HPM_P2
2023/05/30 04:02:41;;;;;;;12.65;5.68;;;;;;;15.58;100.00;100363.88;6496838;26;20409;-84
2023/05/30 04:05:44;;;;;;;10.38;5.80;;;;;;;15.71;100.00;100368.50;6606690;27;31820;-84
2023/05/30 04:08:47;;;;;;;10.02;5.05;;;;;;;15.73;100.00;100366.37;6586135;27;33486;-84
2023/05/30 04:11:52;;;;;;;12.37;5.97;;;;;;;15.75;100.00;100372.44;6586381;27;34111;-84
2023/05/30 04:14:54;;;;;;;8.57;5.57;;;;;;;15.89;100.00;100376.81;6606316;27;34672;-84
2023/05/30 04:17:58;;;;;;;8.68;5.70;;;;;;;16.03;100.00;100373.00;6606163;27;33539;-84
2023/05/30 04:21:00;;;;;;;9.77;5.37;;;;;;;16.17;100.00;100376.47;6586670;27;34055;-84
2023/05/30 04:24:04;;;;;;;9.02;5.50;;;;;;;16.35;100.00;100378.53;6606105;27;33644;-84
2023/05/30 04:27:07;;;;;;;11.85;5.68;;;;;;;16.48;100.00;100375.72;6604500;27;33360;-84
2023/05/30 04:30:11;;;;;;;11.57;6.07;;;;;;;16.61;100.00;100377.53;6586598;27;32947;-84
2023/05/30 04:33:17;;;;;;;10.88;5.28;;;;;;;16.71;100.00;100379.81;6605858;27;34005;-84
2023/05/30 04:36:20;;;;;;;10.18;5.53;;;;;;;16.85;100.00;100381.44;6605813;27;33533;-84
2023/05/30 04:39:24;;;;;;;10.82;5.32;;;;;;;16.89;100.00;100390.81;6605956;27;33496;-84
2023/05/30 04:42:27;;;;;;;11.52;5.40;;;;;;;16.94;100.00;100388.25;6586361;27;34211;-84
2023/05/30 04:45:31;;;;;;;9.70;5.53;;;;;;;17.10;100.00;100395.03;6586530;27;34790;-84
2023/05/30 04:48:34;;;;;;;8.45;5.53;;;;;;;17.16;100.00;100394.16;6605615;27;33558;-84
2023/05/30 04:51:37;;;;;;;8.52;5.50;;;;;;;17.33;100.00;100397.19;6605083;27;32980;-84
2023/05/30 04:54:41;;;;;;;8.00;5.28;;;;;;;17.29;100.00;100395.97;6587889;27;33555;-84
2023/05/30 04:57:44;;;;;;;10.55;6.28;;;;;;;17.36;100.00;100393.19;6606184;27;34317;-84
2023/05/30 05:00:48;;;;;;;9.85;5.75;;;;;;;17.52;100.00;100392.63;6604513;27;34195;-84
2023/05/30 05:03:51;;;;;;;11.35;5.68;;;;;;;17.60;100.00;100394.22;6607170;26;34185;-85
2023/05/30 05:06:54;;;;;;;8.63;5.65;;;;;;;17.60;100.00;100395.06;6621360;27;33799;-84
2023/05/30 05:09:56;;;;;;;10.40;5.20;;;;;;;17.70;100.00;100400.00;6593691;27;33574;-84
2023/05/30 05:12:59;;;;;;;8.38;4.90;;;;;;;17.86;100.00;100401.34;6568731;27;32985;-84
2023/05/30 05:16:04;;;;;;;10.20;5.45;;;;;;;17.98;100.00;100395.97;6585913;27;34053;-84
2023/05/30 05:19:07;;;;;;;13.62;5.00;;;;;;;18.11;98.37;100399.41;6586304;27;33410;-88
2023/05/30 05:22:10;;;;;;;8.38;4.90;;;;;;;18.33;97.71;100401.66;6605367;27;34353;-88
2023/05/30 05:25:13;;;;;;;8.98;5.15;;;;;;;18.36;96.28;100398.47;6603762;27;33705;-89
2023/05/30 05:28:17;;;;;;;9.27;5.37;;;;;;;18.47;94.93;100407.78;6604628;27;33417;-88
2023/05/30 05:31:20;;;;;;;12.32;5.87;;;;;;;18.68;92.59;100406.44;6604334;27;34222;-85
2023/05/30 05:34:22;;;;;;;15.35;5.87;;;;;;;19.05;91.73;100401.75;6604868;27;33400;-84
2023/05/30 05:37:25;;;;;;;8.70;5.22;;;;;;;19.36;88.57;100405.25;6605709;27;34625;-85
2023/05/30 05:40:28;;;;;;;12.48;5.93;;;;;;;19.52;87.28;100407.28;6604572;27;33435;-85
2023/05/30 05:43:31;;;;;;;10.38;5.55;;;;;;;19.63;85.79;100405.66;6605451;27;33774;-85
2023/05/30 05:46:34;;;;;;;9.52;5.78;;;;;;;19.76;83.78;100408.16;6585933;27;34271;-84
2023/05/30 05:49:37;;;;;;;8.65;5.85;;;;;;;19.82;83.26;100403.66;6603911;27;32932;-84
2023/05/30 05:52:40;;;;;;;9.63;5.80;;;;;;;19.97;81.59;100412.19;6604211;27;33451;-84
2023/05/30 05:55:44;;;;;;;10.00;6.37;;;;;;;20.11;82.86;100419.06;6587049;27;33358;-84
2023/05/30 05:58:47;;;;;;;10.57;6.00;;;;;;;20.33;82.10;100421.19;6605081;27;33562;-84
2023/05/30 06:01:50;;;;;;;10.57;5.78;;;;;;;20.89;79.21;100416.03;6587870;27;33516;-84
2023/05/30 06:04:53;;;;;;;8.75;5.60;;;;;;;21.20;77.22;100411.91;6612300;26;33396;-84
2023/05/30 06:07:58;;;;;;;9.48;5.75;;;;;;;21.39;76.46;100416.13;6600291;27;34187;-85
2023/05/30 06:11:01;;;;;;;10.18;5.82;;;;;;;21.63;75.62;100422.25;6617772;27;33606;-85
2023/05/30 06:14:04;;;;;;;9.65;5.97;;;;;;;22.13;73.93;100420.53;6593527;26;34429;-85
2023/05/30 06:17:07;;;;;;;10.90;5.78;;;;;;;22.34;71.86;100421.66;6612396;26;34880;-85
2023/05/30 06:20:10;;;;;;;8.20;5.22;;;;;;;22.25;69.37;100424.00;6613314;27;33289;-85
2023/05/30 06:23:13;;;;;;;12.32;6.43;;;;;;;22.00;72.96;100429.12;6615010;27;34202;-85
2023/05/30 06:26:16;;;;;;;10.50;6.18;;;;;;;22.03;68.90;100428.62;6590561;27;34260;-85
2023/05/30 06:29:19;;;;;;;12.55;6.28;;;;;;;22.25;71.34;100429.50;6568253;27;33399;-85
2023/05/30 06:32:22;;;;;;;10.80;5.72;;;;;;;22.24;69.49;100425.09;6604137;27;33414;-85
2023/05/30 06:35:25;;;;;;;8.77;5.32;;;;;;;22.44;67.93;100429.22;6604346;27;33018;-85
2023/05/30 06:38:28;;;;;;;9.93;5.53;;;;;;;22.24;69.00;100427.03;6606411;27;33017;-85
2023/05/30 06:41:34;;;;;;;9.20;5.43;;;;;;;22.26;68.13;100425.69;6602662;27;33372;-85
2023/05/30 06:44:37;;;;;;;7.12;4.87;;;;;;;22.14;70.53;100436.75;6625938;26;33832;-85
2023/05/30 06:47:40;;;;;;;9.38;5.43;;;;;;;21.93;68.89;100440.25;6627887;27;34533;-85
2023/05/30 06:50:43;;;;;;;9.10;5.15;;;;;;;22.16;68.91;100436.47;6628821;27;34868;-85
2023/05/30 06:53:46;;;;;;;9.45;5.18;;;;;;;22.16;67.55;100437.28;6625392;27;34578;-85
2023/05/30 06:56:49;;;;;;;12.20;5.12;;;;;;;22.19;69.24;100438.75;6599304;27;33703;-84
2023/05/30 06:59:52;;;;;;;8.07;5.05;;;;;;;22.26;64.83;100441.28;6616560;27;33563;-85
2023/05/30 07:02:55;;;;;;;6.90;4.60;;;;;;;22.14;66.11;100441.38;6598695;26;34084;-85
2023/05/30 07:06:00;;;;;;;8.50;4.82;;;;;;;22.08;66.76;100439.66;6616840;26;33460;-85
2023/05/30 07:09:04;;;;;;;8.65;5.20;;;;;;;22.25;67.64;100439.63;6600081;26;33461;-85
2023/05/30 07:12:09;;;;;;;7.35;4.97;;;;;;;22.53;67.41;100444.97;6616905;26;34418;-85
2023/05/30 07:15:13;;;;;;;8.13;5.10;;;;;;;22.62;67.40;100434.34;6598240;26;33464;-85
2023/05/30 07:18:16;;;;;;;8.10;5.00;;;;;;;22.61;66.54;100435.44;6595080;26;33275;-85
2023/05/30 07:21:18;;;;;;;5.85;4.60;;;;;;;22.49;64.30;100446.53;6612221;26;34695;-85
2023/05/30 07:24:22;;;;;;;12.60;5.55;;;;;;;22.25;66.68;100445.94;6612583;26;34864;-85
2023/05/30 07:27:25;;;;;;;10.27;5.28;;;;;;;22.48;66.79;100436.66;6612987;26;33778;-85
2023/05/30 07:30:28;;;;;;;6.87;4.87;;;;;;;22.66;66.26;100434.66;6611917;26;33416;-85
2023/05/30 07:33:31;;;;;;;8.95;4.85;;;;;;;22.73;66.76;100438.06;6618022;26;33494;-85
2023/05/30 07:36:33;;;;;;;8.90;4.97;;;;;;;23.05;61.41;100439.00;6616789;26;34808;-85
2023/05/30 07:39:36;;;;;;;12.95;5.00;;;;;;;23.15;61.64;100442.94;6616614;26;33697;-88
2023/05/30 07:42:39;;;;;;;10.85;5.60;;;;;;;23.11;62.36;100442.62;6613256;26;33112;-89
2023/05/30 07:45:42;;;;;;;8.27;4.97;;;;;;;22.95;64.53;100441.63;6632455;26;33114;-90
2023/05/30 07:48:45;;;;;;;10.00;5.05;;;;;;;23.41;62.41;100441.25;6613869;26;33628;-90
2023/05/30 07:51:48;;;;;;;7.55;4.97;;;;;;;23.70;62.24;100437.13;6632888;26;34133;-87
2023/05/30 07:54:51;;;;;;;11.00;4.30;;;;;;;23.85;60.93;100436.41;6633329;26;33096;-85
2023/05/30 07:57:53;;;;;;;8.52;4.57;;;;;;;23.54;59.50;100443.53;6595302;26;33551;-86
2023/05/30 08:00:57;;;;;;;9.05;4.22;;;;;;;23.58;58.96;100441.94;6613421;26;33003;-86
2023/05/30 08:04:01;;;;;;;6.85;3.97;;;;;;;23.22;57.64;100444.34;6632666;26;34151;-85
2023/05/30 08:07:04;;;;;;;6.95;4.50;;;;;;;23.41;56.15;100446.75;6632546;26;34474;-85
2023/05/30 08:10:07;;;;;;;9.55;4.20;;;;;;;23.53;56.37;100450.13;6613623;26;33147;-85
2023/05/30 08:13:13;;;;;;;6.15;4.43;;;;;;;23.58;55.65;100446.63;6613337;26;34110;-85
2023/05/30 08:16:17;;;;;;;5.15;3.92;;;;;;;23.65;54.95;100453.53;6632958;26;34108;-86
2023/05/30 08:19:21;;;;;;;8.77;4.40;;;;;;;23.76;54.70;100447.06;6595322;26;33218;-85
2023/05/30 08:22:24;;;;;;;6.50;4.12;;;;;;;23.98;53.97;100449.69;6613326;26;34514;-85
2023/05/30 08:25:32;;;;;;;5.00;4.12;;;;;;;24.02;53.16;100444.47;6595495;26;33938;-86
2023/05/30 08:28:35;;;;;;;6.15;4.12;;;;;;;24.14;54.73;100445.09;6597033;26;34337;-86
2023/05/30 08:31:38;;;;;;;6.55;3.87;;;;;;;24.19;52.81;100441.56;6612948;26;33097;-85
2023/05/30 08:34:41;;;;;;;8.05;3.95;;;;;;;24.05;53.60;100437.63;6595000;26;33081;-86
2023/05/30 08:37:44;;;;;;;9.07;4.18;;;;;;;24.16;53.22;100439.31;6613375;26;33499;-86
2023/05/30 08:40:52;;;;;;;6.32;4.50;;;;;;;24.01;53.80;100441.97;6613780;26;33035;-86
2023/05/30 08:43:55;;;;;;;13.50;5.00;;;;;;;24.22;53.57;100432.78;6612730;26;33684;-85
2023/05/30 08:46:59;;;;;;;8.70;4.35;;;;;;;24.11;55.00;100450.31;6614156;26;33627;-86
2023/05/30 08:50:04;;;;;;;6.15;4.68;;;;;;;24.19;52.83;100450.63;6595592;26;34095;-85
2023/05/30 08:53:09;;;;;;;5.72;4.20;;;;;;;23.99;54.43;100445.84;6613728;26;33158;-85
2023/05/30 08:56:18;;;;;;;8.32;4.90;;;;;;;23.99;54.18;100456.03;6614443;26;34127;-86
2023/05/30 08:59:25;;;;;;;6.57;4.78;;;;;;;24.12;54.96;100452.78;6615345;26;33460;-85
2023/05/30 09:02:29;;;;;;;5.80;4.45;;;;;;;24.42;53.22;100465.03;6652262;26;34064;-86
2023/05/30 09:05:35;;;;;;;7.25;4.43;;;;;;;24.52;53.18;100464.31;6620030;26;34818;-85
2023/05/30 09:08:42;;;;;;;10.98;4.87;;;;;;;24.40;52.55;100475.50;6634728;26;33435;-86
2023/05/30 09:11:45;;;;;;;6.87;4.57;;;;;;;24.51;52.32;100471.75;6633471;26;33050;-85
2023/05/30 09:14:48;;;;;;;8.02;4.90;;;;;;;24.70;52.58;100479.53;6633408;26;33141;-85
2023/05/30 09:17:51;;;;;;;8.70;4.47;;;;;;;24.53;52.56;100480.56;6612848;26;33584;-85
2023/05/30 09:20:54;;;;;;;8.75;4.85;;;;;;;24.79;53.71;100477.91;6632953;26;33455;-85
2023/05/30 09:24:04;;;;;;;8.88;4.90;;;;;;;24.53;53.66;100474.22;6613383;26;33093;-85
2023/05/30 09:27:07;;;;;;;8.05;4.57;;;;;;;24.71;54.18;100478.41;6633265;26;33409;-85
2023/05/30 09:30:13;;;;;;;12.05;4.65;;;;;;;24.73;54.29;100474.31;6633156;26;33182;-89
2023/05/30 09:33:16;;;;;;;6.90;6.03;;;;;;;24.82;53.99;100477.37;6614497;26;34706;-90
2023/05/30 09:36:20;;;;;;;7.72;4.78;;;;;;;25.16;54.46;100476.97;6615688;26;34755;-90
2023/05/30 09:39:26;;;;;;;8.35;4.07;;;;;;;25.54;52.19;100486.66;6578779;26;33271;-90
2023/05/30 09:42:43;;;;;;;6.65;4.68;;;;;;;25.24;51.62;100491.03;6633864;26;33477;-86
2023/05/30 09:45:48;;;;;;;8.05;4.32;;;;;;;24.80;53.42;100488.63;6632009;26;33366;-85
2023/05/30 09:48:52;;;;;;;10.02;4.70;;;;;;;25.34;52.34;100488.28;6613468;26;33278;-86
2023/05/30 09:51:55;;;;;;;6.28;4.50;;;;;;;25.30;52.35;100489.94;6634107;26;33198;-85
2023/05/30 09:54:58;;;;;;;8.15;4.62;;;;;;;25.23;53.46;100485.78;6596559;26;33349;-86
2023/05/30 09:58:02;;;;;;;8.93;5.03;;;;;;;25.29;54.22;100488.25;6632257;26;33716;-86
2023/05/30 10:01:16;;;;;;;7.93;4.80;;;;;;;25.63;54.19;100484.16;6612481;26;33618;-85
2023/05/30 10:04:24;;;;;;;8.70;4.82;;;;;;;25.50;55.97;100489.09;6613164;26;33327;-86
2023/05/30 10:07:28;;;;;;;9.57;5.00;;;;;;;25.82;56.16;100495.47;6619555;26;32997;-85
2023/05/30 10:10:31;;;;;;;7.37;4.72;;;;;;;26.37;54.34;100507.56;6635040;26;33969;-85
2023/05/30 10:13:34;;;;;;;12.23;5.47;;;;;;;26.33;55.12;100487.97;6597251;26;34868;-85
2023/05/30 10:17:18;;;;;;;9.05;5.10;;;;;;;26.52;55.24;100503.94;6616774;26;33470;-85
2023/05/30 10:20:25;;;;;;;6.60;5.20;;;;;;;26.42;54.48;100505.63;6632607;26;33347;-85
2023/05/30 10:23:29;;;;;;;8.82;5.25;;;;;;;25.94;54.80;100498.78;6632600;26;34238;-85
2023/05/30 10:26:36;;;;;;;11.15;4.78;;;;;;;26.23;55.01;100497.09;6612866;26;33326;-85
2023/05/30 10:29:47;;;;;;;6.82;4.47;;;;;;;26.12;53.40;100489.09;6612296;26;32945;-85
2023/05/30 10:33:01;;;;;;;8.52;4.53;;;;;;;26.55;52.39;100482.13;6611783;26;33303;-85
2023/05/30 10:36:05;;;;;;;11.93;4.93;;;;;;;26.23;53.39;100479.69;6623981;26;33523;-86
2023/05/30 10:39:33;;;;;;;6.25;4.40;;;;;;;26.32;54.31;100478.03;6612083;26;34261;-86
2023/05/30 10:42:44;;;;;;;4.90;3.92;;;;;;;27.17;48.91;100482.66;6632697;26;33436;-85
2023/05/30 10:46:02;;;;;;;7.12;4.12;;;;;;;26.95;47.92;100473.94;6633078;26;33542;-86
2023/05/30 10:49:13;;;;;;;8.43;4.20;;;;;;;27.42;49.55;100472.56;6631556;26;33469;-85
2023/05/30 10:52:17;;;;;;;5.57;3.60;;;;;;;27.84;47.05;100479.44;6632266;26;34139;-85
2023/05/30 10:55:20;;;;;;;9.20;4.10;;;;;;;28.00;45.00;100472.66;6576430;26;33015;-85
2023/05/30 10:58:42;;;;;;;5.90;3.85;;;;;;;28.21;41.94;100465.78;6594095;26;33289;-85
2023/05/30 11:02:04;;;;;;;7.12;3.83;;;;;;;28.29;44.57;100457.97;6613016;26;33182;-85
2023/05/30 11:05:10;;;;;;;5.10;4.07;;;;;;;28.93;42.69;100462.16;6632032;26;33416;-85
2023/05/30 11:08:13;;;;;;;6.22;3.78;;;;;;;29.04;40.65;100454.53;6612096;26;33376;-85
2023/05/30 11:11:16;;;;;;;6.30;4.00;;;;;;;28.62;44.30;100457.00;6596466;26;33911;-85
2023/05/30 11:14:40;;;;;;;5.87;4.30;;;;;;;28.27;42.41;100452.69;6595863;26;33980;-85
2023/05/30 11:17:43;;;;;;;4.35;3.55;;;;;;;28.14;42.47;100454.25;6611855;26;33947;-85
2023/05/30 11:20:56;;;;;;;6.60;4.00;;;;;;;28.35;41.51;100457.59;6614732;26;33027;-85
2023/05/30 11:24:00;;;;;;;6.30;3.83;;;;;;;27.98;44.42;100456.31;6612597;26;33679;-90
2023/05/30 11:27:15;;;;;;;7.00;3.97;;;;;;;27.80;43.02;100460.66;6630287;26;33292;-86
2023/05/30 11:30:19;;;;;;;4.03;3.50;;;;;;;27.71;45.32;100462.38;6609418;26;33919;-85
2023/05/30 11:33:24;;;;;;;5.32;3.55;;;;;;;28.99;43.69;100460.97;6612003;26;34123;-85
2023/05/30 11:36:28;;;;;;;5.47;3.78;;;;;;;31.67;35.70;100461.88;6593881;26;33713;-85
2023/05/30 11:39:33;;;;;;;6.45;3.47;;;;;;;33.01;33.40;100454.28;6631708;26;34174;-86
2023/05/30 11:42:35;;;;;;;5.75;3.80;;;;;;;34.20;31.99;100454.81;6632031;26;33473;-84
2023/05/30 11:45:42;;;;;;;5.57;3.67;;;;;;;33.84;30.75;100445.69;6611777;26;33336;-84
2023/05/30 11:48:45;;;;;;;4.55;3.72;;;;;;;34.52;30.25;100442.16;6632205;26;33852;-84
2023/05/30 11:51:48;;;;;;;4.65;3.58;;;;;;;34.04;30.60;100441.38;6629958;26;32763;-83
2023/05/30 11:54:57;;;;;;;5.50;3.55;;;;;;;32.92;32.44;100431.94;6594551;26;33358;-83
2023/05/30 11:58:00;;;;;;;5.47;3.65;;;;;;;32.86;31.84;100438.00;6623606;26;34074;-83
2023/05/30 12:01:04;;;;;;;11.18;3.80;;;;;;;33.06;31.71;100431.00;6593795;26;33988;-83
2023/05/30 12:04:08;;;;;;;5.60;4.12;;;;;;;33.65;30.59;100434.06;6593321;26;33299;-84
2023/05/30 12:07:11;;;;;;;9.45;3.70;;;;;;;32.26;31.89;100434.72;6613911;26;34780;-84
2023/05/30 12:10:14;;;;;;;4.18;3.50;;;;;;;31.33;34.98;100429.06;6617576;26;35026;-84
2023/05/30 12:13:20;;;;;;;7.72;3.80;;;;;;;31.97;34.58;100418.53;6603382;26;34580;-84
2023/05/30 12:16:24;;;;;;;4.35;3.53;;;;;;;32.86;32.61;100415.69;6634166;26;34116;-83
2023/05/30 12:19:30;;;;;;;4.47;3.42;;;;;;;31.98;33.28;100425.75;6614075;26;34111;-84
2023/05/30 12:22:33;;;;;;;5.15;3.42;;;;;;;32.91;32.34;100419.13;6612274;26;34423;-84
2023/05/30 12:25:36;;;;;;;4.20;3.15;;;;;;;34.51;29.24;100404.94;6613307;26;32947;-84
2023/05/30 12:28:45;;;;;;;6.18;3.70;;;;;;;35.04;28.76;100402.63;6613455;26;33420;-84
2023/05/30 12:31:48;;;;;;;3.87;3.33;;;;;;;36.21;27.29;100398.78;6632816;26;32962;-84
2023/05/30 12:34:53;;;;;;;4.47;3.50;;;;;;;36.83;26.64;100407.94;6594371;26;32912;-84
2023/05/30 12:37:56;;;;;;;4.75;3.33;;;;;;;36.12;25.36;100393.28;6633475;26;33482;-84
2023/05/30 12:40:59;;;;;;;6.90;3.50;;;;;;;35.96;27.55;100397.94;6633090;26;33578;-84
2023/05/30 12:44:03;;;;;;;5.53;3.53;;;;;;;35.69;26.25;100388.19;6633021;26;33942;-84
2023/05/30 12:47:06;;;;;;;5.47;3.50;;;;;;;35.28;26.98;100382.38;6632860;26;34279;-84
2023/05/30 12:50:09;;;;;;;4.35;3.35;;;;;;;36.33;27.14;100382.78;6620332;26;33006;-84
2023/05/30 12:53:12;;;;;;;4.35;2.83;;;;;;;36.90;23.46;100391.34;6649797;26;33542;-84
2023/05/30 12:56:15;;;;;;;6.45;3.67;;;;;;;38.02;22.88;100390.44;6613158;26;33459;-84
2023/05/30 12:59:18;;;;;;;4.45;3.60;;;;;;;37.81;23.96;100385.09;6595864;26;33407;-84
2023/05/30 13:02:24;;;;;;;6.20;3.25;;;;;;;37.83;23.73;100396.78;6613390;26;33692;-84
2023/05/30 13:05:31;;;;;;;6.35;3.40;;;;;;;37.76;23.87;100402.19;6614603;26;34191;-88
2023/05/30 13:08:33;;;;;;;8.93;3.80;;;;;;;39.11;21.51;100396.22;6612888;26;33645;-88
2023/05/30 13:11:37;;;;;;;6.87;4.00;;;;;;;39.68;22.24;100388.84;6595813;26;34071;-89
2023/05/30 13:14:42;;;;;;;3.45;3.15;;;;;;;40.28;20.59;100391.12;6613691;26;33289;-85
2023/05/30 13:17:45;;;;;;;4.32;3.28;;;;;;;40.63;20.25;100390.03;6613838;26;33551;-85
2023/05/30 13:20:48;;;;;;;4.53;3.03;;;;;;;40.63;20.49;100389.22;6594963;26;34214;-84
2023/05/30 13:23:52;;;;;;;5.78;3.30;;;;;;;40.48;20.91;100388.97;6595422;26;33532;-84
2023/05/30 13:26:54;;;;;;;3.80;3.03;;;;;;;41.81;19.43;100385.78;6612984;26;33152;-85
2023/05/30 13:29:57;;;;;;;4.78;3.28;;;;;;;40.63;20.62;100398.50;6613459;26;33527;-84
2023/05/30 13:33:04;;;;;;;5.03;3.55;;;;;;;39.23;21.79;100396.03;6595366;26;33478;-84
2023/05/30 13:36:08;;;;;;;5.25;3.58;;;;;;;35.57;24.72;100397.38;6612117;26;33460;-84
2023/05/30 13:39:10;;;;;;;5.05;3.55;;;;;;;35.92;24.63;100400.63;6594828;26;33041;-85
2023/05/30 13:42:13;;;;;;;5.90;3.40;;;;;;;38.27;22.56;100388.25;6595521;26;33301;-84
2023/05/30 13:45:18;;;;;;;4.32;3.30;;;;;;;37.55;23.82;100385.59;6633204;26;33594;-85
2023/05/30 13:48:21;;;;;;;5.35;3.50;;;;;;;37.81;23.29;100382.28;6613767;26;34524;-84
2023/05/30 13:51:28;;;;;;;4.32;3.60;;;;;;;37.81;23.59;100373.84;6632887;26;33452;-84
2023/05/30 13:54:31;;;;;;;6.22;3.78;;;;;;;38.71;22.51;100377.62;6612160;26;34419;-84
2023/05/30 13:57:34;;;;;;;6.60;3.37;;;;;;;38.27;22.55;100366.56;6612649;26;33405;-84
2023/05/30 14:00:37;;;;;;;6.78;3.80;;;;;;;37.42;23.99;100368.00;6612555;26;33074;-83
2023/05/30 14:03:40;;;;;;;6.50;3.37;;;;;;;36.57;24.18;100371.91;6612654;26;34160;-83
2023/05/30 14:06:43;;;;;;;4.25;3.50;;;;;;;34.49;26.05;100365.34;6612493;26;33382;-84
2023/05/30 14:09:46;;;;;;;5.82;3.83;;;;;;;33.90;27.87;100368.09;6612926;26;33638;-84
2023/05/30 14:12:49;;;;;;;4.37;3.00;;;;;;;33.45;28.02;100360.19;6632765;26;33416;-83
2023/05/30 14:15:52;;;;;;;8.15;3.35;;;;;;;32.65;28.82;100363.34;6612632;26;33567;-85
2023/05/30 14:18:55;;;;;;;4.87;3.78;;;;;;;32.12;29.11;100369.09;6632674;26;33969;-85
2023/05/30 14:21:59;;;;;;;5.43;3.78;;;;;;;30.33;31.42;100377.06;6594789;26;33477;-83
2023/05/30 14:25:03;;;;;;;6.28;3.53;;;;;;;29.37;33.29;100383.31;6632337;26;33893;-82
2023/05/30 14:28:08;;;;;;;10.05;4.18;;;;;;;28.11;35.19;100421.59;6633117;26;33521;-82
2023/05/30 14:31:11;;;;;;;12.10;4.25;;;;;;;26.24;41.47;100427.00;6594335;26;33580;-82
2023/05/30 14:34:14;;;;;;;16.15;4.90;;;;;;;24.59;45.10;100442.88;6612826;26;33572;-84
2023/05/30 14:37:17;;;;;;;8.30;4.45;;;;;;;23.65;47.94;100463.69;6612930;26;33997;-84
2023/05/30 14:40:20;;;;;;;7.57;4.30;;;;;;;22.71;50.91;100457.53;6594193;26;34611;-84
2023/05/30 14:43:23;;;;;;;10.55;4.85;;;;;;;22.23;51.96;100464.59;6631857;26;33425;-84
2023/05/30 14:46:26;;;;;;;8.50;4.25;;;;;;;22.00;49.67;100478.47;6611702;26;34230;-84
2023/05/30 14:49:29;;;;;;;8.10;4.95;;;;;;;21.72;50.36;100491.19;6604611;26;211570;-84
2023/05/30 14:52:34;;;;;;;6.37;4.32;;;;;;;21.34;53.61;100494.59;6613233;26;33222;-84
2023/05/30 14:55:36;;;;;;;7.37;4.07;;;;;;;20.98;54.36;100491.19;6622717;26;34112;-84
2023/05/30 14:58:40;;;;;;;6.90;4.18;;;;;;;20.84;53.92;100482.44;6633068;26;34809;-84
2023/05/30 15:01:43;;;;;;;6.60;3.90;;;;;;;20.56;53.50;100470.41;6612815;26;33508;-84
2023/05/30 15:04:48;;;;;;;5.28;3.58;;;;;;;20.46;54.00;100482.97;6632644;26;33426;-84
2023/05/30 15:07:51;;;;;;;8.23;4.20;;;;;;;20.34;56.11;100500.22;6631938;26;33324;-84
2023/05/30 15:10:54;;;;;;;7.57;4.15;;;;;;;20.24;59.78;100502.75;6613099;26;33615;-84
2023/05/30 15:13:56;;;;;;;6.95;4.35;;;;;;;19.94;62.30;100520.06;6612881;26;33154;-84
2023/05/30 15:17:00;;;;;;;8.93;4.53;;;;;;;19.74;64.93;100529.66;6595180;26;33662;-87
2023/05/30 15:20:04;;;;;;;11.40;4.72;;;;;;;19.71;65.84;100533.69;6628173;26;33473;-85
2023/05/30 15:23:07;;;;;;;8.60;4.93;;;;;;;19.56;67.48;100533.28;6638381;26;33535;-84
2023/05/30 15:26:10;;;;;;;9.80;4.93;;;;;;;19.39;68.44;100524.91;6612419;26;34022;-84
2023/05/30 15:29:13;;;;;;;8.18;4.45;;;;;;;19.23;69.37;100519.03;6632512;26;33463;-84
2023/05/30 15:32:16;;;;;;;9.60;5.12;;;;;;;19.20;70.32;100515.94;6613933;26;33642;-84
2023/05/30 15:35:21;;;;;;;9.95;5.07;;;;;;;19.17;69.87;100514.50;6632566;26;34118;-84
2023/05/30 15:38:24;;;;;;;9.68;4.97;;;;;;;19.13;71.90;100496.94;6594727;26;33721;-84
2023/05/30 15:41:27;;;;;;;8.00;4.65;;;;;;;19.03;71.93;100492.03;6613036;26;33559;-84
2023/05/30 15:44:29;;;;;;;8.93;4.43;;;;;;;19.04;72.00;100495.56;6614760;26;34164;-84
2023/05/30 15:47:32;;;;;;;7.12;4.37;;;;;;;18.98;72.89;100491.91;6634078;26;33281;-84
2023/05/30 15:50:35;;;;;;;6.65;3.95;;;;;;;18.83;73.86;100482.44;6596038;26;33150;-84
2023/05/30 15:53:38;;;;;;;7.57;4.47;;;;;;;18.74;74.86;100480.03;6596215;26;33389;-84
2023/05/30 15:56:41;;;;;;;8.18;4.43;;;;;;;18.77;75.09;100484.19;6595674;26;34101;-84
2023/05/30 15:59:44;;;;;;;7.97;4.60;;;;;;;18.66;74.50;100474.00;6595995;26;33484;-84
2023/05/30 16:02:46;;;;;;;7.80;4.22;;;;;;;18.64;73.28;100471.53;6614168;26;33403;-84
